Time;durP1;ratioP1;P1;durP2;ratioP2;P2;SDS_P1;SDS_P2;PMS_P1;PMS_P2;Temp;Humidity;BMP_temperature;BMP_pressure;BME280_temperature;BME280_humidity;BME280_pressure;Samples;Min_cycle;Max_cycle;Signal;HPM_P1;HPM_P2
2023/01/25 00:00:13;;;;;;;;;;;7.30;99.90;;;;;;6215657;23;19983;-76
2023/01/25 00:02:38;;;;;;;;;;;7.30;99.90;;;;;;6215453;23;20026;-76
2023/01/25 00:05:04;;;;;;;;;;;7.20;99.90;;;;;;6215465;23;19904;-77
2023/01/25 00:07:29;;;;;;;;;;;7.30;99.90;;;;;;6215748;23;19966;-77
2023/01/25 00:09:55;;;;;;;;;;;7.20;99.90;;;;;;6215636;23;19982;-77
2023/01/25 00:12:20;;;;;;;;;;;7.20;99.90;;;;;;6215901;23;20003;-77
2023/01/25 00:14:46;;;;;;;;;;;7.20;99.90;;;;;;6188674;23;19900;-77
2023/01/25 00:17:12;;;;;;;;;;;7.20;99.90;;;;;;6188556;23;19950;-77
2023/01/25 00:19:37;;;;;;;;;;;7.30;99.90;;;;;;6215207;23;19900;-77
2023/01/25 00:22:03;;;;;;;;;;;7.20;99.90;;;;;;6188529;23;19974;-77
2023/01/25 00:24:28;;;;;;;;;;;7.20;99.90;;;;;;6214583;23;20317;-77
2023/01/25 00:26:54;;;;;;;;;;;7.20;99.90;;;;;;6214610;23;19910;-77
2023/01/25 00:29:19;;;;;;;;;;;7.20;99.90;;;;;;6213852;23;20355;-77
2023/01/25 00:31:46;;;;;;;;;;;7.10;99.90;;;;;;6214265;23;19919;-77
2023/01/25 00:34:11;;;;;;;;;;;7.20;99.90;;;;;;6187639;23;19931;-77
2023/01/25 00:36:40;;;;;;;;;;;7.20;99.90;;;;;;6214326;23;19904;-77
2023/01/25 00:39:06;;;;;;;;;;;7.10;99.90;;;;;;6187903;23;19904;-77
2023/01/25 00:41:31;;;;;;;;;;;7.10;99.90;;;;;;6215409;23;20244;-77
2023/01/25 00:43:57;;;;;;;;;;;7.10;99.90;;;;;;6215127;23;19998;-77
2023/01/25 00:46:23;;;;;;;;;;;7.20;99.90;;;;;;6215552;23;19927;-77
2023/01/25 00:48:51;;;;;;;;;;;7.20;99.90;;;;;;6189225;23;20333;-77
2023/01/25 00:51:17;;;;;;;;;;;7.10;99.90;;;;;;6215607;23;19903;-76
2023/01/25 00:53:42;;;;;;;;;;;7.10;99.90;;;;;;6215312;23;19928;-77
2023/01/25 00:56:08;;;;;;;;;;;7.20;99.90;;;;;;6215575;23;20332;-77
2023/01/25 00:58:33;;;;;;;;;;;7.20;99.90;;;;;;6215369;23;19903;-77
2023/01/25 01:00:59;;;;;;;;;;;7.20;99.90;;;;;;6215292;23;20202;-77
2023/01/25 01:03:24;;;;;;;;;;;7.20;99.90;;;;;;6216001;23;19896;-77
2023/01/25 01:06:00;;;;;;;;;;;7.20;99.90;;;;;;6217376;23;19906;-77
2023/01/25 01:08:26;;;;;;;;;;;7.20;99.90;;;;;;6217136;23;20271;-77
2023/01/25 01:10:56;;;;;;;;;;;7.20;99.90;;;;;;6217045;23;19926;-77
2023/01/25 01:13:22;;;;;;;;;;;7.20;99.90;;;;;;6217115;23;19902;-77
2023/01/25 01:15:47;;;;;;;;;;;7.20;99.90;;;;;;6216944;23;19904;-77
2023/01/25 01:18:13;;;;;;;;;;;7.20;99.90;;;;;;6190206;23;19903;-77
2023/01/25 01:20:38;;;;;;;;;;;7.20;99.90;;;;;;6217348;23;19907;-77
2023/01/25 01:23:04;;;;;;;;;;;7.20;99.90;;;;;;6217001;23;19904;-77
2023/01/25 01:25:29;;;;;;;;;;;7.30;99.90;;;;;;6216893;23;20272;-77
2023/01/25 01:27:55;;;;;;;;;;;7.20;99.90;;;;;;6190551;23;19900;-77
2023/01/25 01:30:20;;;;;;;;;;;7.20;99.90;;;;;;6217179;23;20034;-77
2023/01/25 01:32:46;;;;;;;;;;;7.20;99.90;;;;;;6216695;23;19974;-77
2023/01/25 01:35:11;;;;;;;;;;;7.20;99.90;;;;;;6216976;23;19982;-77
2023/01/25 01:37:40;;;;;;;;;;;7.20;99.90;;;;;;6216846;23;19903;-77
2023/01/25 01:40:07;;;;;;;;;;;7.20;99.90;;;;;;6216997;23;19927;-77
2023/01/25 01:42:32;;;;;;;;;;;7.20;99.90;;;;;;6216854;23;19908;-77
2023/01/25 01:44:58;;;;;;;;;;;7.20;99.90;;;;;;6217017;23;19928;-77
2023/01/25 01:47:26;;;;;;;;;;;7.20;99.90;;;;;;6216721;23;19900;-77
2023/01/25 01:49:59;;;;;;;;;;;7.20;99.90;;;;;;6216903;23;19899;-77
2023/01/25 01:52:27;;;;;;;;;;;7.20;99.90;;;;;;6190232;23;20309;-77
2023/01/25 01:54:59;;;;;;;;;;;7.20;99.90;;;;;;6216841;23;19931;-77
2023/01/25 01:57:27;;;;;;;;;;;7.20;99.90;;;;;;6190086;23;19907;-77
2023/01/25 02:00:00;;;;;;;;;;;7.20;99.90;;;;;;6216782;23;19900;-77
2023/01/25 02:02:25;;;;;;;;;;;7.20;99.90;;;;;;6216736;23;19904;-77
2023/01/25 02:04:52;;;;;;;;;;;7.20;99.90;;;;;;6216971;23;19900;-77
2023/01/25 02:07:24;;;;;;;;;;;7.20;99.90;;;;;;6216800;23;19900;-77
2023/01/25 02:09:50;;;;;;;;;;;7.20;99.90;;;;;;6189976;23;19904;-77
2023/01/25 02:12:16;;;;;;;;;;;7.20;99.90;;;;;;6216582;23;19900;-76
2023/01/25 02:14:46;;;;;;;;;;;7.20;99.90;;;;;;6189886;23;19906;-77
2023/01/25 02:17:11;;;;;;;;;;;7.20;99.90;;;;;;6216497;23;19910;-77
2023/01/25 02:19:42;;;;;;;;;;;7.20;99.90;;;;;;6216684;23;20447;-77
2023/01/25 02:22:09;;;;;;;;;;;7.30;99.90;;;;;;6216732;23;20228;-77
2023/01/25 02:24:36;;;;;;;;;;;7.30;99.90;;;;;;6216548;23;19904;-77
2023/01/25 02:27:02;;;;;;;;;;;7.20;99.90;;;;;;6189627;23;20236;-77
2023/01/25 02:29:28;;;;;;;;;;;7.20;99.90;;;;;;6216517;23;19900;-77
2023/01/25 02:32:03;;;;;;;;;;;7.20;99.90;;;;;;6216441;23;19896;-77
2023/01/25 02:34:29;;;;;;;;;;;7.20;99.90;;;;;;6189524;23;20194;-77
2023/01/25 02:36:54;;;;;;;;;;;7.10;99.90;;;;;;6216204;23;19991;-77
2023/01/25 02:39:22;;;;;;;;;;;7.10;99.90;;;;;;6216310;23;19923;-77
2023/01/25 02:41:48;;;;;;;;;;;7.10;99.90;;;;;;6189642;23;19896;-77
2023/01/25 02:44:20;;;;;;;;;;;7.10;99.90;;;;;;6189059;23;19918;-77
2023/01/25 02:46:46;;;;;;;;;;;7.20;99.90;;;;;;6215988;23;19904;-77
2023/01/25 02:49:12;;;;;;;;;;;7.10;99.90;;;;;;6216406;23;19924;-77
2023/01/25 02:51:39;;;;;;;;;;;7.20;99.90;;;;;;6189827;23;19967;-77
2023/01/25 02:54:05;;;;;;;;;;;7.10;99.90;;;;;;6189435;23;20363;-77
2023/01/25 02:56:31;;;;;;;;;;;7.10;99.90;;;;;;6216393;23;19907;-77
2023/01/25 02:58:57;;;;;;;;;;;7.10;99.90;;;;;;6189621;23;19899;-77
2023/01/25 03:01:22;;;;;;;;;;;7.10;99.90;;;;;;6216092;23;20240;-77
2023/01/25 03:03:48;;;;;;;;;;;7.10;99.90;;;;;;6189500;23;19922;-77
2023/01/25 03:06:13;;;;;;;;;;;7.00;99.90;;;;;;6216176;23;20272;-77
2023/01/25 03:08:39;;;;;;;;;;;7.00;99.90;;;;;;6189539;23;19906;-77
2023/01/25 03:11:05;;;;;;;;;;;7.00;99.90;;;;;;6216205;23;19927;-77
2023/01/25 03:13:31;;;;;;;;;;;6.90;99.90;;;;;;6216012;23;19900;-77
2023/01/25 03:16:04;;;;;;;;;;;6.80;99.90;;;;;;6215810;23;19900;-77
2023/01/25 03:18:29;;;;;;;;;;;6.80;99.90;;;;;;6189412;23;19904;-77
2023/01/25 03:20:55;;;;;;;;;;;6.80;99.90;;;;;;6216126;23;19978;-77
2023/01/25 03:23:20;;;;;;;;;;;6.80;99.90;;;;;;6216179;23;19896;-77
2023/01/25 03:25:46;;;;;;;;;;;6.70;99.90;;;;;;6215829;23;19911;-77
2023/01/25 03:28:11;;;;;;;;;;;6.70;99.90;;;;;;6189051;23;19975;-77
2023/01/25 03:30:37;;;;;;;;;;;6.70;99.90;;;;;;6189456;23;19900;-77
2023/01/25 03:33:03;;;;;;;;;;;6.70;99.90;;;;;;6189114;23;20217;-77
2023/01/25 03:35:28;;;;;;;;;;;6.60;99.90;;;;;;6189325;23;20285;-77
2023/01/25 03:37:54;;;;;;;;;;;6.50;99.90;;;;;;6216157;23;19904;-77
2023/01/25 03:40:19;;;;;;;;;;;6.40;99.90;;;;;;6216018;23;19900;-77
2023/01/25 03:42:45;;;;;;;;;;;6.40;99.90;;;;;;6215524;23;19922;-77
2023/01/25 03:45:13;;;;;;;;;;;6.40;99.90;;;;;;6216078;23;19900;-77
2023/01/25 03:47:39;;;;;;;;;;;6.30;99.90;;;;;;6189260;23;19907;-77
2023/01/25 03:50:04;;;;;;;;;;;6.30;99.90;;;;;;6215813;23;19900;-77
2023/01/25 03:52:37;;;;;;;;;;;6.30;99.90;;;;;;6189168;23;19954;-77
2023/01/25 03:55:03;;;;;;;;;;;6.40;99.90;;;;;;6215598;23;19904;-77
2023/01/25 03:57:29;;;;;;;;;;;6.40;99.90;;;;;;6188858;23;19911;-77
2023/01/25 03:59:54;;;;;;;;;;;6.40;99.90;;;;;;6216012;23;19900;-77
2023/01/25 04:02:20;;;;;;;;;;;6.40;99.90;;;;;;6215645;23;19900;-77
2023/01/25 04:04:45;;;;;;;;;;;6.40;99.90;;;;;;6215639;23;19900;-77
2023/01/25 04:07:11;;;;;;;;;;;6.40;99.90;;;;;;6216041;23;19975;-77
2023/01/25 04:09:36;;;;;;;;;;;6.40;99.90;;;;;;6215511;23;20335;-77
2023/01/25 04:12:02;;;;;;;;;;;6.30;99.90;;;;;;6215705;23;19928;-77
2023/01/25 04:14:27;;;;;;;;;;;6.30;99.90;;;;;;6215514;23;19904;-77
2023/01/25 04:16:53;;;;;;;;;;;6.40;99.90;;;;;;6215498;23;19903;-77
2023/01/25 04:19:18;;;;;;;;;;;6.30;99.90;;;;;;6215658;23;19900;-77
2023/01/25 04:21:44;;;;;;;;;;;6.30;99.90;;;;;;6189387;23;19904;-77
2023/01/25 04:24:09;;;;;;;;;;;6.30;99.90;;;;;;6188662;23;19995;-77
2023/01/25 04:26:35;;;;;;;;;;;6.30;99.90;;;;;;6189234;23;19911;-77
2023/01/25 04:29:00;;;;;;;;;;;6.30;99.90;;;;;;6189079;23;19923;-77
2023/01/25 04:31:26;;;;;;;;;;;6.30;99.90;;;;;;6215736;23;20375;-77
2023/01/25 04:33:51;;;;;;;;;;;6.30;99.90;;;;;;6215758;23;19979;-77
2023/01/25 04:36:17;;;;;;;;;;;6.20;99.90;;;;;;6215882;23;19975;-77
2023/01/25 04:38:42;;;;;;;;;;;6.20;99.90;;;;;;6217360;23;20472;-77
2023/01/25 04:41:08;;;;;;;;;;;6.20;99.90;;;;;;6190853;23;19966;-77
2023/01/25 04:43:33;;;;;;;;;;;6.20;99.90;;;;;;6190476;23;19916;-77
2023/01/25 04:46:02;;;;;;;;;;;6.20;99.90;;;;;;6217843;23;20212;-77
2023/01/25 04:48:27;;;;;;;;;;;6.20;99.90;;;;;;6217584;23;19900;-77
2023/01/25 04:50:53;;;;;;;;;;;6.20;99.90;;;;;;6217680;23;19907;-77
2023/01/25 04:53:18;;;;;;;;;;;6.10;99.90;;;;;;6217222;23;19899;-77
2023/01/25 04:55:46;;;;;;;;;;;6.10;99.90;;;;;;6190672;23;19900;-77
2023/01/25 04:58:11;;;;;;;;;;;6.10;99.90;;;;;;6190651;23;19904;-77
2023/01/25 05:00:37;;;;;;;;;;;6.10;99.90;;;;;;6217258;23;19922;-77
2023/01/25 05:03:02;;;;;;;;;;;6.10;99.90;;;;;;6217175;23;20236;-77
2023/01/25 05:05:28;;;;;;;;;;;6.10;99.90;;;;;;6217400;23;19907;-77
2023/01/25 05:07:53;;;;;;;;;;;6.10;99.90;;;;;;6217277;23;19907;-77
2023/01/25 05:10:19;;;;;;;;;;;6.10;99.90;;;;;;6217290;23;19899;-77
2023/01/25 05:12:44;;;;;;;;;;;6.10;99.90;;;;;;6217147;23;20368;-77
2023/01/25 05:15:10;;;;;;;;;;;6.00;99.90;;;;;;6217387;23;19903;-77
2023/01/25 05:17:35;;;;;;;;;;;6.00;99.90;;;;;;6216991;23;19939;-77
2023/01/25 05:20:01;;;;;;;;;;;6.10;99.90;;;;;;6217261;23;19910;-77
2023/01/25 05:22:27;;;;;;;;;;;6.10;99.90;;;;;;6217214;23;19900;-77
2023/01/25 05:24:53;;;;;;;;;;;6.10;99.90;;;;;;6217157;23;19910;-77
2023/01/25 05:27:19;;;;;;;;;;;6.10;99.90;;;;;;6217017;23;19900;-77
2023/01/25 05:29:44;;;;;;;;;;;6.10;99.90;;;;;;6217108;23;19903;-77
2023/01/25 05:32:21;;;;;;;;;;;6.10;99.90;;;;;;6190113;23;19953;-77
2023/01/25 05:34:46;;;;;;;;;;;6.10;99.90;;;;;;6216868;23;19979;-77
2023/01/25 05:37:13;;;;;;;;;;;6.10;99.90;;;;;;6216753;23;19989;-77
2023/01/25 05:39:39;;;;;;;;;;;6.10;99.90;;;;;;6216964;23;19907;-77
2023/01/25 05:42:09;;;;;;;;;;;6.10;99.90;;;;;;6217032;23;19900;-77
2023/01/25 05:44:34;;;;;;;;;;;6.10;99.90;;;;;;6216900;23;20348;-77
2023/01/25 05:47:00;;;;;;;;;;;6.10;99.90;;;;;;6216853;23;19943;-77
2023/01/25 05:49:25;;;;;;;;;;;6.10;99.90;;;;;;6216719;23;19915;-77
2023/01/25 05:51:51;;;;;;;;;;;6.10;99.90;;;;;;6217093;23;19900;-77
2023/01/25 05:54:18;;;;;;;;;;;6.10;99.90;;;;;;6190132;23;19953;-77
2023/01/25 05:56:43;;;;;;;;;;;6.10;99.90;;;;;;6216684;23;19922;-77
2023/01/25 05:59:10;;;;;;;;;;;6.20;99.90;;;;;;6216987;23;20308;-77
2023/01/25 06:01:36;;;;;;;;;;;6.20;99.90;;;;;;6216531;23;19907;-77
2023/01/25 06:04:01;;;;;;;;;;;6.20;99.90;;;;;;6216576;23;20277;-77
2023/01/25 06:06:27;;;;;;;;;;;6.20;99.90;;;;;;6216654;23;19900;-77
2023/01/25 06:08:53;;;;;;;;;;;6.20;99.90;;;;;;6216728;23;19943;-77
2023/01/25 06:11:20;;;;;;;;;;;6.20;99.90;;;;;;6189973;23;19907;-77
2023/01/25 06:13:45;;;;;;;;;;;6.20;99.90;;;;;;6216506;23;19974;-77
2023/01/25 06:16:11;;;;;;;;;;;6.20;99.90;;;;;;6216578;23;19923;-77
2023/01/25 06:18:36;;;;;;;;;;;6.20;99.90;;;;;;6216699;23;19904;-77
2023/01/25 06:21:02;;;;;;;;;;;6.20;99.90;;;;;;6215118;23;19900;-77
2023/01/25 06:23:28;;;;;;;;;;;6.20;99.90;;;;;;6216661;23;19972;-77
2023/01/25 06:26:01;;;;;;;;;;;6.20;99.90;;;;;;6216453;23;20276;-77
2023/01/25 06:28:34;;;;;;;;;;;6.20;99.90;;;;;;6189775;23;20324;-77
2023/01/25 06:31:06;;;;;;;;;;;6.20;99.90;;;;;;6216455;23;20331;-77
2023/01/25 06:33:32;;;;;;;;;;;6.20;99.90;;;;;;6216483;23;19900;-77
2023/01/25 06:36:05;;;;;;;;;;;6.20;99.90;;;;;;6216449;23;19950;-77
2023/01/25 06:38:31;;;;;;;;;;;6.20;99.90;;;;;;6216312;23;19910;-77
2023/01/25 06:41:00;;;;;;;;;;;6.20;99.90;;;;;;6215941;23;19923;-77
2023/01/25 06:43:26;;;;;;;;;;;6.20;99.90;;;;;;6188915;23;19916;-77
2023/01/25 06:45:51;;;;;;;;;;;6.30;99.90;;;;;;6215751;23;19900;-77
2023/01/25 06:48:17;;;;;;;;;;;6.30;99.90;;;;;;6215866;23;19942;-77
2023/01/25 06:50:42;;;;;;;;;;;6.30;99.90;;;;;;6216219;23;19931;-77
2023/01/25 06:53:08;;;;;;;;;;;6.20;99.90;;;;;;6189645;23;19900;-77
2023/01/25 06:55:33;;;;;;;;;;;6.20;99.90;;;;;;6189613;23;19900;-77
2023/01/25 06:57:59;;;;;;;;;;;6.20;99.90;;;;;;6216192;23;19903;-77
2023/01/25 07:00:25;;;;;;;;;;;6.20;99.90;;;;;;6189485;23;19900;-77
2023/01/25 07:02:50;;;;;;;;;;;6.20;99.90;;;;;;6189313;23;20208;-77
2023/01/25 07:05:16;;;;;;;;;;;6.20;99.90;;;;;;6216338;23;19907;-77
2023/01/25 07:07:45;;;;;;;;;;;6.20;99.90;;;;;;6189395;23;19907;-77
2023/01/25 07:10:11;;;;;;;;;;;6.20;99.90;;;;;;6189383;23;19900;-76
2023/01/25 07:12:36;;;;;;;;;;;6.20;99.90;;;;;;6189584;23;19907;-77
2023/01/25 07:15:02;;;;;;;;;;;6.20;99.90;;;;;;6216115;23;19900;-77
2023/01/25 07:17:27;;;;;;;;;;;6.30;99.90;;;;;;6215919;23;19903;-77
2023/01/25 07:19:53;;;;;;;;;;;6.30;99.90;;;;;;6216084;23;19900;-77
2023/01/25 07:22:18;;;;;;;;;;;6.30;99.90;;;;;;6189344;23;20003;-77
2023/01/25 07:24:48;;;;;;;;;;;6.30;99.90;;;;;;6216166;23;19899;-77
2023/01/25 07:27:15;;;;;;;;;;;6.30;99.90;;;;;;6189319;23;19899;-77
2023/01/25 07:29:40;;;;;;;;;;;6.30;99.90;;;;;;6216203;23;19979;-77
2023/01/25 07:32:06;;;;;;;;;;;6.30;99.90;;;;;;6215871;23;19942;-77
2023/01/25 07:34:31;;;;;;;;;;;6.30;99.90;;;;;;6189022;23;19954;-77
2023/01/25 07:36:57;;;;;;;;;;;6.30;99.90;;;;;;6215880;23;20316;-77
2023/01/25 07:39:22;;;;;;;;;;;6.30;99.90;;;;;;6216262;23;19927;-77
2023/01/25 07:41:48;;;;;;;;;;;6.40;99.90;;;;;;6189422;23;19931;-77
2023/01/25 07:44:13;;;;;;;;;;;6.40;99.90;;;;;;6188986;23;19912;-77
2023/01/25 07:46:39;;;;;;;;;;;6.40;99.90;;;;;;6188722;23;19904;-77
2023/01/25 07:49:05;;;;;;;;;;;6.40;99.90;;;;;;6189152;23;20461;-77
2023/01/25 07:51:31;;;;;;;;;;;6.50;99.90;;;;;;6189249;23;19900;-77
2023/01/25 07:54:00;;;;;;;;;;;6.40;99.90;;;;;;6215727;23;19899;-77
2023/01/25 07:56:30;;;;;;;;;;;6.50;99.90;;;;;;6215878;23;19946;-77
2023/01/25 07:58:56;;;;;;;;;;;6.50;99.90;;;;;;6216027;23;19934;-77
2023/01/25 08:01:23;;;;;;;;;;;6.50;99.90;;;;;;6215689;23;19907;-77
2023/01/25 08:03:50;;;;;;;;;;;6.60;99.90;;;;;;6215910;23;19907;-77
2023/01/25 08:06:15;;;;;;;;;;;6.60;99.90;;;;;;6188993;23;19970;-77
2023/01/25 08:08:45;;;;;;;;;;;6.60;99.90;;;;;;6215602;23;20292;-77
2023/01/25 08:11:13;;;;;;;;;;;6.60;99.90;;;;;;6215860;23;19904;-77
2023/01/25 08:13:39;;;;;;;;;;;6.70;99.90;;;;;;6217412;23;19899;-77
2023/01/25 08:16:05;;;;;;;;;;;6.70;99.90;;;;;;6217631;23;19953;-77
2023/01/25 08:18:30;;;;;;;;;;;6.70;99.90;;;;;;6190897;23;19904;-77
2023/01/25 08:20:59;;;;;;;;;;;6.70;99.90;;;;;;6217281;23;20267;-77
2023/01/25 08:23:25;;;;;;;;;;;6.70;99.90;;;;;;6189956;23;19900;-77
2023/01/25 08:25:51;;;;;;;;;;;6.70;99.90;;;;;;6190913;23;20371;-77
2023/01/25 08:28:16;;;;;;;;;;;6.70;99.90;;;;;;6217737;23;19899;-77
2023/01/25 08:30:42;;;;;;;;;;;6.80;99.90;;;;;;6217758;23;19931;-77
2023/01/25 08:33:07;;;;;;;;;;;6.80;99.90;;;;;;6217357;23;19928;-77
2023/01/25 08:35:35;;;;;;;;;;;6.80;99.90;;;;;;6217762;23;19900;-77
2023/01/25 08:38:01;;;;;;;;;;;6.80;99.90;;;;;;6190953;23;19904;-77
2023/01/25 08:40:27;;;;;;;;;;;6.80;99.90;;;;;;6217731;23;19903;-77
2023/01/25 08:42:52;;;;;;;;;;;6.90;99.90;;;;;;6217275;23;19912;-76
2023/01/25 08:45:18;;;;;;;;;;;6.90;99.90;;;;;;6217847;23;19954;-77
2023/01/25 08:47:44;;;;;;;;;;;6.90;99.90;;;;;;6190915;23;20275;-77
2023/01/25 08:50:09;;;;;;;;;;;6.90;99.90;;;;;;6217388;23;19899;-77
2023/01/25 08:52:35;;;;;;;;;;;7.00;99.90;;;;;;6217339;23;19942;-77
2023/01/25 08:55:01;;;;;;;;;;;7.00;99.90;;;;;;6217081;23;19903;-77
2023/01/25 08:57:26;;;;;;;;;;;7.00;99.90;;;;;;6190617;23;20347;-77
2023/01/25 08:59:52;;;;;;;;;;;7.00;99.90;;;;;;6217424;23;19944;-77
2023/01/25 09:02:18;;;;;;;;;;;7.10;99.90;;;;;;6217004;23;19899;-77
2023/01/25 09:04:43;;;;;;;;;;;7.10;99.90;;;;;;6217546;23;19927;-77
2023/01/25 09:07:09;;;;;;;;;;;7.10;99.90;;;;;;6217395;23;19907;-77
2023/01/25 09:09:35;;;;;;;;;;;7.10;99.90;;;;;;6217082;23;19899;-77
2023/01/25 09:12:00;;;;;;;;;;;7.20;99.90;;;;;;6217417;23;19911;-77
2023/01/25 09:14:26;;;;;;;;;;;7.30;99.90;;;;;;6190742;23;19906;-77
2023/01/25 09:16:51;;;;;;;;;;;7.30;99.90;;;;;;6216749;23;19900;-77
2023/01/25 09:19:17;;;;;;;;;;;7.40;99.90;;;;;;6216780;23;19904;-77
2023/01/25 09:21:42;;;;;;;;;;;7.50;99.90;;;;;;6216975;23;19906;-77
2023/01/25 09:24:08;;;;;;;;;;;7.50;99.90;;;;;;6216022;23;19900;-77
2023/01/25 09:26:35;;;;;;;;;;;7.60;99.90;;;;;;6216623;23;19900;-77
2023/01/25 09:29:00;;;;;;;;;;;7.60;99.90;;;;;;6216623;23;19967;-77
2023/01/25 09:31:26;;;;;;;;;;;7.70;99.90;;;;;;6216754;23;19970;-77
2023/01/25 09:33:51;;;;;;;;;;;7.70;99.90;;;;;;6189743;23;19904;-77
2023/01/25 09:36:17;;;;;;;;;;;7.80;99.90;;;;;;6216924;23;19899;-77
2023/01/25 09:38:43;;;;;;;;;;;7.80;99.90;;;;;;6190210;23;19939;-77
2023/01/25 09:41:09;;;;;;;;;;;7.90;99.90;;;;;;6190451;23;19900;-77
2023/01/25 09:43:37;;;;;;;;;;;7.90;99.90;;;;;;6216720;23;19912;-77
2023/01/25 09:46:10;;;;;;;;;;;8.00;99.90;;;;;;6216913;23;19911;-77
2023/01/25 09:48:41;;;;;;;;;;;8.00;99.90;;;;;;6216537;23;19918;-77
2023/01/25 09:51:19;;;;;;;;;;;8.00;99.90;;;;;;6190196;23;19904;-77
2023/01/25 09:53:52;;;;;;;;;;;8.10;99.90;;;;;;6216977;23;19907;-77
2023/01/25 09:56:23;;;;;;;;;;;8.00;99.90;;;;;;6217136;23;19906;-77
2023/01/25 09:58:50;;;;;;;;;;;8.00;99.90;;;;;;6216577;23;19950;-77
2023/01/25 10:01:27;;;;;;;;;;;7.90;99.90;;;;;;6190467;23;19903;-77
2023/01/25 10:04:01;;;;;;;;;;;7.90;99.90;;;;;;6216286;23;19977;-77
2023/01/25 10:06:34;;;;;;;;;;;7.90;99.90;;;;;;6216779;23;19915;-77
2023/01/25 10:09:07;;;;;;;;;;;7.90;99.90;;;;;;6216602;23;19902;-77
2023/01/25 10:11:33;;;;;;;;;;;7.90;99.90;;;;;;6190296;23;19900;-77
2023/01/25 10:13:59;;;;;;;;;;;7.90;99.90;;;;;;6216766;23;19971;-77
2023/01/25 10:16:43;;;;;;;;;;;7.90;99.90;;;;;;6189760;23;19900;-77
2023/01/25 10:19:08;;;;;;;;;;;7.90;99.90;;;;;;6189789;23;19911;-77
2023/01/25 10:21:41;;;;;;;;;;;7.90;99.90;;;;;;6216670;23;20228;-77
2023/01/25 10:24:46;;;;;;;;;;;7.90;99.90;;;;;;6216267;23;19900;-77
2023/01/25 10:27:26;;;;;;;;;;;7.90;99.90;;;;;;6066477;23;20379;-77
2023/01/25 10:29:54;;;;;;;;;;;7.90;99.90;;;;;;6066572;23;19976;-77
2023/01/25 10:32:31;;;;;;;;;;;7.90;99.90;;;;;;6153265;23;19907;-77
2023/01/25 10:34:59;;;;;;;;;;;8.00;99.90;;;;;;6216591;23;19974;-77
2023/01/25 10:37:27;;;;;;;;;;;8.10;99.90;;;;;;6216226;23;19903;-77
2023/01/25 10:40:18;;;;;;;;;;;8.10;99.90;;;;;;6216428;23;19930;-77
2023/01/25 10:42:47;;;;;;;;;;;8.10;99.90;;;;;;6208627;23;19912;-77
2023/01/25 10:45:14;;;;;;;;;;;8.10;99.90;;;;;;6216345;23;19900;-77
2023/01/25 10:47:41;;;;;;;;;;;8.10;99.90;;;;;;6189628;23;19944;-77
2023/01/25 10:50:07;;;;;;;;;;;8.10;99.90;;;;;;6216370;23;19900;-77
2023/01/25 10:52:36;;;;;;;;;;;8.20;99.90;;;;;;6216263;23;19916;-77
2023/01/25 10:55:04;;;;;;;;;;;8.10;99.90;;;;;;6216536;23;20236;-77
2023/01/25 10:57:30;;;;;;;;;;;8.20;99.90;;;;;;6216294;23;20459;-77
2023/01/25 10:59:58;;;;;;;;;;;8.20;99.90;;;;;;6216551;23;19926;-77
2023/01/25 11:02:35;;;;;;;;;;;8.20;99.90;;;;;;6215858;23;19904;-77
2023/01/25 11:05:20;;;;;;;;;;;8.30;99.90;;;;;;6216436;23;19974;-77
2023/01/25 11:07:45;;;;;;;;;;;8.30;99.90;;;;;;6216140;23;20205;-77
2023/01/25 11:10:23;;;;;;;;;;;8.40;99.90;;;;;;6216252;23;19903;-77
2023/01/25 11:12:56;;;;;;;;;;;8.50;99.90;;;;;;6215778;23;19935;-77
2023/01/25 11:15:23;;;;;;;;;;;8.50;99.90;;;;;;6216350;23;20335;-77
2023/01/25 11:18:03;;;;;;;;;;;8.60;99.90;;;;;;6215751;23;19908;-77
2023/01/25 11:20:28;;;;;;;;;;;8.70;99.90;;;;;;6216005;23;19896;-77
2023/01/25 11:22:55;;;;;;;;;;;8.60;99.90;;;;;;6215887;23;19900;-77
2023/01/25 11:25:29;;;;;;;;;;;8.70;99.90;;;;;;6189241;23;19911;-77
2023/01/25 11:28:10;;;;;;;;;;;8.70;99.90;;;;;;6189427;23;19907;-77
2023/01/25 11:30:35;;;;;;;;;;;8.60;99.90;;;;;;6216089;23;19900;-77
2023/01/25 11:33:01;;;;;;;;;;;8.60;99.90;;;;;;6189117;23;19904;-77
2023/01/25 11:35:30;;;;;;;;;;;8.60;99.90;;;;;;6215777;23;20319;-77
2023/01/25 11:38:01;;;;;;;;;;;8.70;99.90;;;;;;6215851;23;19907;-77
2023/01/25 11:40:37;;;;;;;;;;;8.70;99.90;;;;;;6215959;23;19983;-77
2023/01/25 11:43:02;;;;;;;;;;;8.90;99.90;;;;;;6215826;23;19966;-77
2023/01/25 11:45:40;;;;;;;;;;;9.00;99.90;;;;;;6215941;23;19904;-77
2023/01/25 11:48:32;;;;;;;;;;;9.20;99.90;;;;;;6188635;23;19908;-77
2023/01/25 11:51:04;;;;;;;;;;;9.20;99.90;;;;;;6215767;23;19900;-77
2023/01/25 11:53:59;;;;;;;;;;;9.10;99.90;;;;;;6215615;23;19900;-77
2023/01/25 11:56:33;;;;;;;;;;;9.10;99.90;;;;;;6183787;23;19978;-77
2023/01/25 11:59:08;;;;;;;;;;;9.00;99.90;;;;;;6215860;23;19965;-77
2023/01/25 12:01:52;;;;;;;;;;;9.00;99.90;;;;;;6216178;23;20186;-77
2023/01/25 12:04:20;;;;;;;;;;;8.90;99.90;;;;;;6189203;23;20263;-77
2023/01/25 12:06:49;;;;;;;;;;;9.00;99.90;;;;;;6215558;23;19911;-77
2023/01/25 12:09:14;;;;;;;;;;;9.10;99.90;;;;;;6215852;23;19899;-77
2023/01/25 12:11:53;;;;;;;;;;;9.30;99.90;;;;;;6215928;23;19980;-77
2023/01/25 12:14:24;;;;;;;;;;;9.40;99.90;;;;;;6189102;23;19907;-77
2023/01/25 12:16:59;;;;;;;;;;;9.50;99.90;;;;;;6215607;23;19966;-77
2023/01/25 12:19:29;;;;;;;;;;;9.50;99.90;;;;;;6215634;23;20297;-77
2023/01/25 12:21:55;;;;;;;;;;;9.50;99.90;;;;;;6215530;23;19926;-77
2023/01/25 12:24:23;;;;;;;;;;;9.40;99.90;;;;;;6216067;23;19896;-77
2023/01/25 12:27:06;;;;;;;;;;;9.30;99.90;;;;;;6215956;23;19907;-77
2023/01/25 12:29:35;;;;;;;;;;;9.40;99.90;;;;;;6215589;23;19900;-77
2023/01/25 12:32:00;;;;;;;;;;;9.40;99.90;;;;;;6215526;23;19973;-78
2023/01/25 12:34:36;;;;;;;;;;;9.40;99.90;;;;;;6215500;23;19904;-77
2023/01/25 12:37:12;;;;;;;;;;;9.40;99.90;;;;;;6215567;23;19990;-77
2023/01/25 12:39:41;;;;;;;;;;;9.40;99.90;;;;;;6215776;23;19896;-77
2023/01/25 12:42:11;;;;;;;;;;;9.40;99.90;;;;;;6215223;23;19900;-78
2023/01/25 12:44:49;;;;;;;;;;;9.40;99.90;;;;;;6215614;23;19900;-77
2023/01/25 12:47:20;;;;;;;;;;;9.40;99.90;;;;;;6215419;23;20316;-77
2023/01/25 12:49:52;;;;;;;;;;;9.50;99.90;;;;;;6189010;23;19900;-78
2023/01/25 12:52:17;;;;;;;;;;;9.50;99.90;;;;;;6215515;23;19899;-77
2023/01/25 12:54:43;;;;;;;;;;;9.50;99.90;;;;;;6215226;23;19907;-77
2023/01/25 12:57:22;;;;;;;;;;;9.40;99.90;;;;;;6188650;23;19904;-78
2023/01/25 13:00:03;;;;;;;;;;;9.40;99.90;;;;;;6190560;23;19934;-77
2023/01/25 13:02:28;;;;;;;;;;;9.30;99.90;;;;;;6190538;23;19900;-77
2023/01/25 13:05:13;;;;;;;;;;;9.40;99.90;;;;;;6217319;23;20358;-77
2023/01/25 13:07:43;;;;;;;;;;;9.40;99.90;;;;;;6190530;23;19900;-77
2023/01/25 13:10:17;;;;;;;;;;;9.40;99.90;;;;;;6190798;23;19900;-77
2023/01/25 13:12:53;;;;;;;;;;;9.40;99.90;;;;;;6190388;23;20197;-78
2023/01/25 13:15:37;;;;;;;;;;;9.40;99.90;;;;;;6217351;23;19900;-78
2023/01/25 13:18:21;;;;;;;;;;;9.40;99.90;;;;;;6217204;23;20193;-77
2023/01/25 13:20:48;;;;;;;;;;;9.40;99.90;;;;;;6190729;23;19931;-78
2023/01/25 13:23:28;;;;;;;;;;;9.30;99.90;;;;;;6190632;23;19900;-77
2023/01/25 13:26:14;;;;;;;;;;;9.30;99.90;;;;;;6190436;23;19950;-77
2023/01/25 13:28:46;;;;;;;;;;;9.30;99.90;;;;;;6216831;23;19907;-77
2023/01/25 13:31:30;;;;;;;;;;;9.40;99.90;;;;;;6217237;23;20343;-77
2023/01/25 13:33:58;;;;;;;;;;;9.30;99.90;;;;;;6216786;23;19923;-77
2023/01/25 13:36:44;;;;;;;;;;;9.30;99.90;;;;;;6217290;23;20267;-77
2023/01/25 13:39:39;;;;;;;;;;;9.40;99.90;;;;;;6189282;23;19918;-78
2023/01/25 13:42:08;;;;;;;;;;;9.40;99.90;;;;;;6184454;23;19932;-77
2023/01/25 13:44:34;;;;;;;;;;;9.40;99.90;;;;;;6217186;23;20236;-77
2023/01/25 13:47:02;;;;;;;;;;;9.40;99.90;;;;;;6216761;23;20309;-78
2023/01/25 13:49:35;;;;;;;;;;;9.40;99.90;;;;;;6216914;23;19923;-78
2023/01/25 13:52:03;;;;;;;;;;;9.40;99.90;;;;;;6216887;23;19900;-78
2023/01/25 13:54:29;;;;;;;;;;;9.40;99.90;;;;;;6190273;23;19900;-77
2023/01/25 13:57:04;;;;;;;;;;;9.40;99.90;;;;;;6216812;23;19971;-77
2023/01/25 13:59:30;;;;;;;;;;;9.40;99.90;;;;;;6216649;23;19907;-78
2023/01/25 14:01:56;;;;;;;;;;;9.40;99.90;;;;;;6216722;23;19908;-77
2023/01/25 14:04:22;;;;;;;;;;;9.40;99.90;;;;;;6216610;23;20301;-78
2023/01/25 14:06:48;;;;;;;;;;;9.40;99.90;;;;;;6216640;23;19935;-78
2023/01/25 14:09:18;;;;;;;;;;;9.40;99.90;;;;;;6190201;23;19900;-78
2023/01/25 14:11:47;;;;;;;;;;;9.40;99.90;;;;;;6216152;23;19927;-78
2023/01/25 14:14:16;;;;;;;;;;;9.40;99.90;;;;;;6216700;23;19900;-78
2023/01/25 14:16:42;;;;;;;;;;;9.40;99.90;;;;;;6190208;23;20285;-78
2023/01/25 14:19:24;;;;;;;;;;;9.30;99.90;;;;;;6216365;23;19935;-77
2023/01/25 14:22:08;;;;;;;;;;;9.30;99.90;;;;;;6216255;23;20312;-78
2023/01/25 14:24:34;;;;;;;;;;;9.30;99.90;;;;;;6216556;23;20316;-77
2023/01/25 14:26:59;;;;;;;;;;;9.30;99.90;;;;;;6216434;23;19906;-78
2023/01/25 14:29:25;;;;;;;;;;;9.30;99.90;;;;;;6216753;23;19927;-78
2023/01/25 14:31:50;;;;;;;;;;;9.30;99.90;;;;;;6216450;23;20339;-77
2023/01/25 14:34:17;;;;;;;;;;;9.30;99.90;;;;;;6216411;23;19899;-78
2023/01/25 14:36:43;;;;;;;;;;;9.30;99.90;;;;;;6216343;23;19900;-78